Imperial Beach Nolf (Ream Fld) Information

FAA: NRS - ICAO: KNRS

Imperial Beach Nolf (Ream Fld) (Airport) Location

State California
County San Diego
City Imperial Beach
Imperial Beach Nolf (Ream Fld) (Airport) is 1 mile south of Imperial Beach, CA.
Latitude 32-33-58.1638N
Longitude 117-06-48.6837W
Elevation 23ft

Imperial Beach Nolf (Ream Fld) METARs

METAR KNRS 262154Z 29009KT 10SM FEW250 17/11 A3007 RMK SLP182 T01670111
Altimeter 30.07"
Temperature 16.7°C (62.1°F)
Wind 290° at 9KT
Clouds few at 25,000ft
Visibility 10.0mi
Time observed: 2022-01-26T21:54:00Z

Imperial Beach Nolf (Ream Fld) (Airport) Details

Status Operational
Activation February 1944
Ownership Military - Navy
Usage Private
Chart LOS ANGELES
ATC on-site Yes
Beacon schedule sunset-sunrise
Beacon color split clear green

Imperial Beach Nolf (Ream Fld) (Airport) Contacts

Owner US NAVY
Owner address OCEANOGRAPHIC OFC - CODE 3142, WASHINGTON, DC 20373
Owner phone N/A
Manager RICHARD TIPPETT
Manager address P.O. BOX 2490, WEAVERVILLE, CA 96093-2490
Manager phone 530-623-1365

Imperial Beach Nolf (Ream Fld) Radio Frequencies

Imperial Beach Nolf (Ream Fld) (Airport) Radio Frequencies

UNICOM N/A
Common traffic advisory frequency (CTAF) N/A